地図

経路データ

SID SEASON NUMBER BASIN SUBBASIN NAME ISO_TIME NATURE LAT LON WMO_WIND WMO_PRES WMO_AGENCY TRACK_TYPE DIST2LAND LANDFALL IFLAG USA_AGENCY USA_ATCF_ID USA_LAT USA_LON USA_RECORD USA_STATUS USA_WIND USA_PRES USA_SSHS USA_R34_NE USA_R34_SE USA_R34_SW USA_R34_NW USA_R50_NE USA_R50_SE USA_R50_SW USA_R50_NW USA_R64_NE USA_R64_SE USA_R64_SW USA_R64_NW USA_POCI USA_ROCI USA_RMW USA_EYE TOKYO_LAT TOKYO_LON TOKYO_GRADE TOKYO_WIND TOKYO_PRES TOKYO_R50_DIR TOKYO_R50_LONG TOKYO_R50_SHORT TOKYO_R30_DIR TOKYO_R30_LONG TOKYO_R30_SHORT TOKYO_LAND CMA_LAT CMA_LON CMA_CAT CMA_WIND CMA_PRES HKO_LAT HKO_LON HKO_CAT HKO_WIND HKO_PRES NEWDELHI_LAT NEWDELHI_LON NEWDELHI_GRADE NEWDELHI_WIND NEWDELHI_PRES NEWDELHI_CI NEWDELHI_DP NEWDELHI_POCI REUNION_LAT REUNION_LON REUNION_TYPE REUNION_WIND REUNION_PRES REUNION_TNUM REUNION_CI REUNION_RMW REUNION_R34_NE REUNION_R34_SE REUNION_R34_SW REUNION_R34_NW REUNION_R50_NE REUNION_R50_SE REUNION_R50_SW REUNION_R50_NW REUNION_R64_NE REUNION_R64_SE REUNION_R64_SW REUNION_R64_NW BOM_LAT BOM_LON BOM_TYPE BOM_WIND BOM_PRES BOM_TNUM BOM_CI BOM_RMW BOM_R34_NE BOM_R34_SE BOM_R34_SW BOM_R34_NW BOM_R50_NE BOM_R50_SE BOM_R50_SW BOM_R50_NW BOM_R64_NE BOM_R64_SE BOM_R64_SW BOM_R64_NW BOM_ROCI BOM_POCI BOM_EYE BOM_POS_METHOD BOM_PRES_METHOD NADI_LAT NADI_LON NADI_CAT NADI_WIND NADI_PRES WELLINGTON_LAT WELLINGTON_LON WELLINGTON_WIND WELLINGTON_PRES DS824_LAT DS824_LON DS824_STAGE DS824_WIND DS824_PRES TD9636_LAT TD9636_LON TD9636_STAGE TD9636_WIND TD9636_PRES TD9635_LAT TD9635_LON TD9635_WIND TD9635_PRES TD9635_ROCI NEUMANN_LAT NEUMANN_LON NEUMANN_CLASS NEUMANN_WIND NEUMANN_PRES MLC_LAT MLC_LON MLC_CLASS MLC_WIND MLC_PRES USA_GUST BOM_GUST BOM_GUST_PER REUNION_GUST REUNION_GUST_PER USA_SEAHGT USA_SEARAD_NE USA_SEARAD_SE USA_SEARAD_SW USA_SEARAD_NW STORM_SPEED STORM_DIR
1900258N21088 1900 28 NI BB NOT_NAMED 1900-09-15 00:00:00 TS 20.5000 88.1000 main 116 106 _________O____ -1 20.5000 88.1000 TC 30 1 264
1900258N21088 1900 28 NI BB NOT_NAMED 1900-09-15 03:00:00 TS 20.4933 88.0267 main 106 96 _________PO___ -1 20.4900 87.9900 TC 30 20.5000 88.1000 1 1 274
1900258N21088 1900 28 NI BB NOT_NAMED 1900-09-15 06:00:00 TS 20.5100 87.9431 main 96 96 _________OP___ -1 20.5000 87.9000 TC 30 20.5251 88.0079 1 2 290
1900258N21088 1900 28 NI BB NOT_NAMED 1900-09-15 09:00:00 TS 20.5458 87.8768 main 96 83 _________PP___ -1 20.5425 87.8425 TC 30 20.5501 87.9226 1 1 304
1900258N21088 1900 28 NI BB NOT_NAMED 1900-09-15 12:00:00 TS 20.5875 87.8255 main 83 83 _________OP___ -1 20.6000 87.8000 TC 30 20.5751 87.8510 1 1 312
1900258N21088 1900 28 NI BB NOT_NAMED 1900-09-15 15:00:00 TS 20.6287 87.7750 main 83 72 _________PO___ -1 20.6575 87.7500 TC 30 20.6000 87.8000 1 1 309
1900258N21088 1900 28 NI BB NOT_NAMED 1900-09-15 18:00:00 TS 20.6624 87.7356 main 72 72 _________OP___ -1 20.7000 87.7000 TC 30 20.6249 87.7712 1 1 312
1900258N21088 1900 28 NI BB NOT_NAMED 1900-09-15 21:00:00 TS 20.6749 87.7087 main 72 72 _________PP___ -1 20.7000 87.6725 TC 30 20.6498 87.7449 1 1 288
1900258N21088 1900 28 NI BB NOT_NAMED 1900-09-16 00:00:00 TS 20.6874 87.6481 main 62 52 _________OP___ -1 20.7000 87.6000 TC 30 20.6748 87.6962 1 2 285
1900258N21088 1900 28 NI BB NOT_NAMED 1900-09-16 03:00:00 TS 20.7250 87.5150 main 52 31 _________PO___ -1 20.7500 87.4300 TC 30 20.7000 87.6000 1 3 283
1900258N21088 1900 28 NI BB NOT_NAMED 1900-09-16 06:00:00 TS 20.7626 87.3106 main 31 10 _________OP___ -1 20.8000 87.2000 TC 30 20.7252 87.4213 1 4 277
1900258N21088 1900 28 NI BB NOT_NAMED 1900-09-16 09:00:00 TS 20.7751 87.0762 main 10 0 _________PP___ -1 20.8000 86.9574 TC 30 20.7502 87.1950 1 5 273
1900258N21088 1900 28 NI BB NOT_NAMED 1900-09-16 12:00:00 TS 20.7876 86.8231 main 0 0 _________OP___ -1 20.8000 86.7000 TC 30 20.7752 86.9463 1 5 276
1900258N21088 1900 28 NI BB NOT_NAMED 1900-09-16 15:00:00 TS 20.8250 86.5675 main 0 0 _________PO___ -1 20.8500 86.4351 TC 30 20.8000 86.7000 1 5 279
1900258N21088 1900 28 NI BB NOT_NAMED 1900-09-16 18:00:00 TS 20.8646 86.3302 main 0 0 _________OP___ -1 20.9000 86.2000 TC 30 20.8291 86.4603 1 4 278
1900258N21088 1900 28 NI BB NOT_NAMED 1900-09-16 21:00:00 TS 20.8825 86.1225 main 0 0 _________PP___ -1 20.9075 86.0125 TC 30 20.8576 86.2326 1 3 275
1900258N21088 1900 28 NI BB NOT_NAMED 1900-09-17 00:00:00 TS 20.8911 85.9692 main 0 0 _________OP___ -1 20.9000 85.9000 TC 30 20.8823 86.0385 1 2 275
1900258N21088 1900 28 NI BB NOT_NAMED 1900-09-17 03:00:00 TS 20.9000 85.8887 main 0 0 _________PO___ -1 20.9000 85.8775 TC 30 20.9000 85.9000 1 1 278
1900258N21088 1900 28 NI BB NOT_NAMED 1900-09-17 06:00:00 TS 20.9035 85.8712 main 0 0 _________OP___ -1 20.9000 85.9000 TC 30 20.9070 85.8425 1 0 0
1900258N21088 1900 28 NI BB NOT_NAMED 1900-09-17 09:00:00 TS 20.9037 85.8700 main 0 0 _________PP___ -1 20.9000 85.9000 TC 30 20.9074 85.8400 1 0 0
1900258N21088 1900 28 NI BB NOT_NAMED 1900-09-17 12:00:00 TS 20.9020 85.8837 main 0 0 _________OP___ -1 20.9000 85.9000 TC 30 20.9040 85.8675 1 0 95
1900258N21088 1900 28 NI BB NOT_NAMED 1900-09-17 15:00:00 TS 20.9000 85.9000 main 0 0 _________PO___ -1 20.9000 85.9000 TC 30 20.9000 85.9000 1 0 0
1900258N21088 1900 28 NI BB NOT_NAMED 1900-09-17 18:00:00 TS 20.9000 85.9000 main 0 0 _________OP___ -1 20.9000 85.9000 TC 30 20.9000 85.9000 1 0 0
1900258N21088 1900 28 NI BB NOT_NAMED 1900-09-17 21:00:00 TS 20.9000 85.9000 main 0 0 _________PP___ -1 20.9000 85.9000 TC 30 20.9000 85.9000 1 0 0
1900258N21088 1900 28 NI BB NOT_NAMED 1900-09-18 00:00:00 TS 20.9000 85.9000 main 0 0 _________OP___ -1 20.9000 85.9000 TC 30 20.9000 85.9000 1 0 0
1900258N21088 1900 28 NI BB NOT_NAMED 1900-09-18 03:00:00 TS 20.9000 85.9000 main 0 0 _________PO___ -1 20.9000 85.9000 TC 30 20.9000 85.9000 1 0 0
1900258N21088 1900 28 NI BB NOT_NAMED 1900-09-18 06:00:00 TS 20.9000 85.9000 main 0 0 _________OP___ -1 20.9000 85.9000 TC 30 20.9000 85.9000 1 0 0
1900258N21088 1900 28 NI BB NOT_NAMED 1900-09-18 09:00:00 TS 20.9000 85.9000 main 0 0 _________PP___ -1 20.9000 85.9000 TC 30 20.9000 85.9000 1 0 0
1900258N21088 1900 28 NI BB NOT_NAMED 1900-09-18 12:00:00 TS 20.9000 85.9000 main 0 0 _________OP___ -1 20.9000 85.9000 TC 30 20.9000 85.9000 1 0 0
1900258N21088 1900 28 NI BB NOT_NAMED 1900-09-18 15:00:00 TS 20.9000 85.9000 main 0 0 _________PO___ -1 20.9000 85.9000 TC 30 20.9000 85.9000 1 0 0
1900258N21088 1900 28 NI BB NOT_NAMED 1900-09-18 18:00:00 TS 20.9000 85.9000 main 0 0 _________OP___ -1 20.9000 85.9000 TC 30 20.9000 85.9000 1 0 0
1900258N21088 1900 28 NI BB NOT_NAMED 1900-09-18 21:00:00 TS 20.9000 85.9000 main 0 0 _________PP___ -1 20.9000 85.9000 TC 30 20.9000 85.9000 1 0 0
1900258N21088 1900 28 NI BB NOT_NAMED 1900-09-19 00:00:00 TS 20.9000 85.9000 main 0 0 _________OP___ -1 20.9000 85.9000 TC 30 20.9000 85.9000 1 0 0
1900258N21088 1900 28 NI BB NOT_NAMED 1900-09-19 03:00:00 TS 20.9000 85.9000 main 0 0 _________PO___ -1 20.9000 85.9000 TC 30 20.9000 85.9000 1 0 0
1900258N21088 1900 28 NI BB NOT_NAMED 1900-09-19 06:00:00 TS 20.9000 85.9000 main 0 0 _________OP___ -1 20.9000 85.9000 TC 30 20.9000 85.9000 1 0 0
1900258N21088 1900 28 NI BB NOT_NAMED 1900-09-19 09:00:00 TS 20.9000 85.9000 main 0 0 _________PP___ -1 20.9000 85.9000 TC 30 20.9000 85.9000 1 0 0
1900258N21088 1900 28 NI BB NOT_NAMED 1900-09-19 12:00:00 TS 20.9000 85.9000 main 0 0 _________OP___ -1 20.9000 85.9000 TC 30 20.9000 85.9000 1 0 0
1900258N21088 1900 28 NI BB NOT_NAMED 1900-09-19 15:00:00 TS 20.9000 85.9000 main 0 0 _________PO___ -1 20.9000 85.9000 TC 30 20.9000 85.9000 1 0 0
1900258N21088 1900 28 NI BB NOT_NAMED 1900-09-19 18:00:00 TS 20.9000 85.9000 main 0 0 _________OP___ -1 20.9000 85.9000 TC 30 20.9000 85.9000 1 0 0
1900258N21088 1900 28 NI BB NOT_NAMED 1900-09-19 21:00:00 TS 20.9000 85.9000 main 0 0 _________PP___ -1 20.9000 85.9000 TC 30 20.9000 85.9000 1 0 0
1900258N21088 1900 28 NI BB NOT_NAMED 1900-09-20 00:00:00 TS 20.9000 85.9000 main 0 0 _________OP___ -1 20.9000 85.9000 TC 30 20.9000 85.9000 1 0 0
1900258N21088 1900 28 NI BB NOT_NAMED 1900-09-20 03:00:00 TS 20.9000 85.9000 main 0 0 _________PO___ -1 20.9000 85.9000 TC 30 20.9000 85.9000 1 0 0
1900258N21088 1900 28 NI BB NOT_NAMED 1900-09-20 06:00:00 TS 20.9000 85.9000 main 0 0 _________OP___ -1 20.9000 85.9000 TC 30 20.9000 85.9000 1 0 0
1900258N21088 1900 28 NI BB NOT_NAMED 1900-09-20 09:00:00 TS 20.9000 85.9000 main 0 0 _________PP___ -1 20.9000 85.9000 TC 30 20.9000 85.9000 1 0 0
1900258N21088 1900 28 NI BB NOT_NAMED 1900-09-20 12:00:00 TS 20.9000 85.9000 main 0 0 _________OP___ -1 20.9000 85.9000 TC 30 20.9000 85.9000 1 0 0
1900258N21088 1900 28 NI BB NOT_NAMED 1900-09-20 15:00:00 TS 20.9000 85.9000 main 0 0 _________PO___ -1 20.9000 85.9000 TC 30 20.9000 85.9000 1 0 0
1900258N21088 1900 28 NI BB NOT_NAMED 1900-09-20 18:00:00 TS 20.8999 85.9203 main 0 0 _________OP___ -1 20.9000 85.9000 TC 30 20.8999 85.9406 1 0 90
1900258N21088 1900 28 NI BB NOT_NAMED 1900-09-20 21:00:00 TS 20.8999 85.9525 main 0 0 _________PP___ -1 20.9000 85.9300 TC 30 20.8998 85.9750 1 0 0
1900258N21088 1900 28 NI BB NOT_NAMED 1900-09-21 00:00:00 TS 20.8999 85.9359 main 0 0 _________OP___ -1 20.9000 85.9000 TC 30 20.8998 85.9719 1 1 270
1900258N21088 1900 28 NI BB NOT_NAMED 1900-09-21 03:00:00 TS 20.9000 85.8225 main 0 0 _________PO___ -1 20.9000 85.7450 TC 30 20.9000 85.9000 1 3 270
1900258N21088 1900 28 NI BB NOT_NAMED 1900-09-21 06:00:00 TS 20.9001 85.6089 main 0 0 _________OP___ -1 20.9000 85.5000 TC 30 20.9002 85.7178 1 5 270
1900258N21088 1900 28 NI BB NOT_NAMED 1900-09-21 09:00:00 TS 20.9002 85.3375 main 0 0 _________PP___ -1 20.9001 85.2075 TC 30 20.9003 85.4675 1 5 270
1900258N21088 1900 28 NI BB NOT_NAMED 1900-09-21 12:00:00 TS 20.9001 85.0417 main 0 0 _________OP___ -1 20.9000 84.9000 TC 30 20.9002 85.1834 1 5 270
1900258N21088 1900 28 NI BB NOT_NAMED 1900-09-21 15:00:00 TS 20.9000 84.7675 main 0 0 _________PO___ -1 20.9000 84.6350 TC 30 20.9000 84.9000 1 5 270
1900258N21088 1900 28 NI BB NOT_NAMED 1900-09-21 18:00:00 TS 20.9019 84.5400 main 0 0 _________OP___ -1 20.9000 84.4000 TC 30 20.9038 84.6800 1 4 271
1900258N21088 1900 28 NI BB NOT_NAMED 1900-09-21 21:00:00 TS 20.9035 84.3363 main 0 0 _________PP___ -1 20.8999 84.2075 TC 30 20.9071 84.4651 1 4 270
1900258N21088 1900 28 NI BB NOT_NAMED 1900-09-22 00:00:00 TS 20.9035 84.1213 main 0 0 _________OP___ -1 20.9000 84.0000 TC 30 20.9069 84.2426 1 4 270
1900258N21088 1900 28 NI BB NOT_NAMED 1900-09-22 03:00:00 TS 20.9038 83.8575 main 0 0 _________PO___ -1 20.9075 83.7150 TC 30 20.9000 84.0000 1 5 269
1900258N21088 1900 28 NI BB NOT_NAMED 1900-09-22 06:00:00 TS 20.8911 83.5608 main 0 0 _________OP___ -1 20.9000 83.4000 TC 30 20.8822 83.7215 1 6 265
1900258N21088 1900 28 NI BB NOT_NAMED 1900-09-22 09:00:00 TS 20.8537 83.2612 main 0 0 _________PP___ -1 20.8499 83.0999 TC 30 20.8575 83.4224 1 6 262
1900258N21088 1900 28 NI BB NOT_NAMED 1900-09-22 12:00:00 TS 20.8145 82.9561 main 0 0 _________OP___ -1 20.8000 82.8000 TC 30 20.8290 83.1122 1 6 265
1900258N21088 1900 28 NI BB NOT_NAMED 1900-09-22 15:00:00 TS 20.8000 82.6500 main 0 0 _________PO___ -1 20.7999 82.5001 TC 30 20.8000 82.8000 1 6 267
1900258N21088 1900 28 NI BB NOT_NAMED 1900-09-22 18:00:00 TS 20.7812 82.3560 main 0 0 _________OP___ -1 20.8000 82.2000 TC 30 20.7625 82.5120 1 5 264
1900258N21088 1900 28 NI BB NOT_NAMED 1900-09-22 21:00:00 TS 20.7384 82.0686 main 0 0 _________PP___ -1 20.7499 81.9149 TC 30 20.7270 82.2222 1 6 262
1900258N21088 1900 28 NI BB NOT_NAMED 1900-09-23 00:00:00 TS 20.7015 81.7607 main 0 0 _________OP___ -1 20.7000 81.6000 TC 30 20.7031 81.9213 1 6 265
1900258N21088 1900 28 NI BB NOT_NAMED 1900-09-23 03:00:00 TS 20.6888 81.4037 main 0 0 _________PO___ -1 20.6776 81.2074 TC 30 20.7000 81.6000 1 7 270
1900258N21088 1900 28 NI BB NOT_NAMED 1900-09-23 06:00:00 TS 20.7042 81.0111 main 0 0 _________OP___ -1 20.7000 80.8000 TC 30 20.7084 81.2222 1 7 276
1900258N21088 1900 28 NI BB NOT_NAMED 1900-09-23 09:00:00 TS 20.7590 80.6275 main 0 0 _________PP___ -1 20.7775 80.4275 TC 30 20.7405 80.8274 1 7 282
1900258N21088 1900 28 NI BB NOT_NAMED 1900-09-23 12:00:00 TS 20.8511 80.2720 main 0 0 _________OP___ -1 20.9000 80.1000 TC 30 20.8022 80.4440 1 7 289
1900258N21088 1900 28 NI BB NOT_NAMED 1900-09-23 15:00:00 TS 20.9675 79.9637 main 0 0 _________PO___ -1 21.0349 79.8274 TC 30 20.9000 80.1000 1 6 297
1900258N21088 1900 28 NI BB NOT_NAMED 1900-09-23 18:00:00 TS 21.1235 79.7019 main 0 0 _________OP___ -1 21.2000 79.6000 TC 30 21.0469 79.8038 1 6 307
1900258N21088 1900 28 NI BB NOT_NAMED 1900-09-23 21:00:00 TS 21.3174 79.4615 main 0 0 _________PP___ -1 21.4075 79.3701 TC 30 21.2272 79.5529 1 6 314
1900258N21088 1900 28 NI BB NOT_NAMED 1900-09-24 00:00:00 TS 21.5095 79.2753 main 0 0 _________OP___ -1 21.6000 79.2000 TC 30 21.4189 79.3506 1 4 321
1900258N21088 1900 28 NI BB NOT_NAMED 1900-09-24 03:00:00 TS 21.6537 79.1637 main 0 0 _________PO___ -1 21.7075 79.1274 TC 30 21.6000 79.2000 1 3 327
1900258N21088 1900 28 NI BB NOT_NAMED 1900-09-24 06:00:00 TS 21.7676 79.0936 main 0 0 _________OP___ -1 21.8000 79.1000 TC 30 21.7351 79.0872 1 3 334
1900258N21088 1900 28 NI BB NOT_NAMED 1900-09-24 09:00:00 TS 21.8999 79.0336 main 0 0 _________PP___ -1 21.9425 79.0425 TC 30 21.8573 79.0247 1 3 341
1900258N21088 1900 28 NI BB NOT_NAMED 1900-09-24 12:00:00 TS 22.0379 78.9999 main 0 0 _________OP___ -1 22.1000 79.0000 TC 30 21.9758 78.9998 1 3 353
1900258N21088 1900 28 NI BB NOT_NAMED 1900-09-24 15:00:00 TS 22.1750 78.9925 main 0 0 _________PO___ -1 22.2500 78.9850 TC 30 22.1000 79.0000 1 3 0
1900258N21088 1900 28 NI BB NOT_NAMED 1900-09-24 18:00:00 TS 22.3214 78.9976 main 0 0 _________OP___ -1 22.4000 79.0000 TC 30 22.2428 78.9953 1 3 7
1900258N21088 1900 28 NI BB NOT_NAMED 1900-09-24 21:00:00 TS 22.4712 79.0275 main 0 0 _________PP___ -1 22.5500 79.0425 TC 30 22.3925 79.0125 1 3 13
1900258N21088 1900 28 NI BB NOT_NAMED 1900-09-25 00:00:00 TS 22.6230 79.0742 main 0 0 _________OP___ -1 22.7000 79.1000 TC 30 22.5459 79.0484 1 3 16
1900258N21088 1900 28 NI BB NOT_NAMED 1900-09-25 03:00:00 TS 22.7750 79.1213 main 0 0 _________PO___ -1 22.8500 79.1425 TC 30 22.7000 79.1000 1 3 17
1900258N21088 1900 28 NI BB NOT_NAMED 1900-09-25 06:00:00 TS 22.9250 79.1763 main 0 0 _________OP___ -1 23.0000 79.2000 TC 30 22.8500 79.1525 1 3 22
1900258N21088 1900 28 NI BB NOT_NAMED 1900-09-25 09:00:00 TS 23.0750 79.2563 main 0 0 _________PP___ -1 23.1500 79.2925 TC 30 23.0000 79.2201 1 3 28
1900258N21088 1900 28 NI BB NOT_NAMED 1900-09-25 12:00:00 TS 23.2250 79.3513 main 0 0 _________OP___ -1 23.3000 79.4000 TC 30 23.1500 79.3026 1 3 30
1900258N21088 1900 28 NI BB NOT_NAMED 1900-09-25 15:00:00 TS 23.3750 79.4463 main 0 0 _________PO___ -1 23.4500 79.4925 TC 30 23.3000 79.4000 1 3 31
1900258N21088 1900 28 NI BB NOT_NAMED 1900-09-25 18:00:00 TS 23.5188 79.5453 main 0 0 _________OP___ -1 23.6000 79.6000 TC 30 23.4377 79.4906 1 3 35
1900258N21088 1900 28 NI BB NOT_NAMED 1900-09-25 21:00:00 TS 23.6561 79.6628 main 0 0 _________PP___ -1 23.7349 79.7276 TC 30 23.5773 79.5980 1 4 40
1900258N21088 1900 28 NI BB NOT_NAMED 1900-09-26 00:00:00 TS 23.8141 79.8157 main 0 0 _________OP___ -1 23.9000 79.9000 TC 30 23.7282 79.7314 1 5 42
1900258N21088 1900 28 NI BB NOT_NAMED 1900-09-26 03:00:00 TS 24.0213 80.0175 main 0 0 _________PO___ -1 24.1425 80.1349 TC 30 23.9000 79.9000 1 6 42
1900258N21088 1900 28 NI BB NOT_NAMED 1900-09-26 06:00:00 TS 24.2517 80.2529 main 0 0 _________OP___ -1 24.4000 80.4000 TC 30 24.1034 80.1059 1 6 45
1900258N21088 1900 28 NI BB NOT_NAMED 1900-09-26 09:00:00 TS 24.4637 80.4951 main 0 0 _________PP___ -1 24.5999 80.6427 TC 30 24.3275 80.3475 1 6 47
1900258N21088 1900 28 NI BB NOT_NAMED 1900-09-26 12:00:00 TS 24.6814 80.7577 main 0 0 _________OP___ -1 24.8000 80.9000 TC 30 24.5628 80.6154 1 7 47
1900258N21088 1900 28 NI BB NOT_NAMED 1900-09-26 15:00:00 TS 24.9250 81.0462 main 0 0 _________PO___ -1 25.0500 81.1925 TC 30 24.8000 80.9000 1 7 48
1900258N21088 1900 28 NI BB NOT_NAMED 1900-09-26 18:00:00 TS 25.1467 81.3246 main 0 0 _________OP___ -1 25.3000 81.5000 TC 30 25.0318 81.1931 1 7 50
1900258N21088 1900 28 NI BB NOT_NAMED 1900-09-26 21:00:00 TS 25.3598 81.6160 main 0 0 _________PP___ -1 25.5126 81.8024 TC 30 25.2579 81.4918 1 7 52
1900258N21088 1900 28 NI BB NOT_NAMED 1900-09-27 00:00:00 TS 25.5534 81.8964 main 0 0 _________OP___ -1 25.7000 82.1000 TC 30 25.4801 81.7946 1 6 52
1900258N21088 1900 28 NI BB NOT_NAMED 1900-09-27 03:00:00 NR 25.7000 82.1000 main 0 __________O___ -1 TC 25.7000 82.1000 1 5 52

IBTrACS Databaseについて

本データベースは、米国NOAAが公開する1842年以降の世界の熱帯低気圧のベストトラックデータアーカイブInternational Best Track Archive for Climate Stewardship (IBTrACS)を、ウェブで閲覧しやすい形式に変換したものです。

最終更新日:2021-10-19